Time;durP1;ratioP1;P1;durP2;ratioP2;P2;SDS_P1;SDS_P2;PMS_P1;PMS_P2;Temp;Humidity;BMP_temperature;BMP_pressure;BME280_temperature;BME280_humidity;BME280_pressure;Samples;Min_cycle;Max_cycle;Signal;HPM_P1;HPM_P2
2023/10/03 00:00:13;;;;;;;35.80;20.77;;;;;;;16.93;100.00;100865.50;4995177;28;20026;-71
2023/10/03 00:02:39;;;;;;;35.90;20.25;;;;;;;17.00;100.00;100867.69;4998609;28;20030;-71
2023/10/03 00:05:07;;;;;;;32.75;20.98;;;;;;;17.02;100.00;100863.06;5001177;28;20256;-72
2023/10/03 00:07:33;;;;;;;36.30;20.45;;;;;;;17.04;100.00;100861.09;4970135;28;20030;-71
2023/10/03 00:09:59;;;;;;;36.28;20.73;;;;;;;17.05;100.00;100865.50;4979531;28;20026;-70
2023/10/03 00:12:27;;;;;;;36.03;20.73;;;;;;;17.04;100.00;100856.56;4999189;28;20067;-71
2023/10/03 00:14:52;;;;;;;36.15;21.10;;;;;;;17.03;100.00;100848.63;4999233;28;20270;-71
2023/10/03 00:17:19;;;;;;;32.95;20.23;;;;;;;17.03;100.00;100840.56;4999158;28;20060;-71
2023/10/03 00:19:44;;;;;;;35.53;21.48;;;;;;;17.04;100.00;100839.59;4991138;28;20123;-70
2023/10/03 00:22:09;;;;;;;35.58;20.00;;;;;;;17.05;100.00;100834.09;4982587;28;20395;-71
2023/10/03 00:24:35;;;;;;;35.42;21.10;;;;;;;17.04;100.00;100835.06;4989376;28;20064;-72
2023/10/03 00:27:00;;;;;;;35.33;20.20;;;;;;;17.06;100.00;100835.81;4999788;28;20302;-71
2023/10/03 00:29:29;;;;;;;35.28;20.95;;;;;;;17.03;100.00;100840.56;4991267;28;20105;-71
2023/10/03 00:31:58;;;;;;;36.42;21.50;;;;;;;17.01;100.00;100829.06;5000175;28;20041;-71
2023/10/03 00:34:24;;;;;;;36.83;20.77;;;;;;;16.99;100.00;100837.25;4989527;28;20425;-72
2023/10/03 00:36:52;;;;;;;37.50;19.95;;;;;;;16.99;100.00;100831.03;4990708;28;20034;-72
2023/10/03 00:39:17;;;;;;;37.05;20.88;;;;;;;16.97;100.00;100831.16;4994513;28;20446;-72
2023/10/03 00:41:44;;;;;;;35.55;21.35;;;;;;;16.92;100.00;100815.38;4992371;28;20022;-71
2023/10/03 00:44:10;;;;;;;35.28;21.08;;;;;;;16.92;100.00;100814.50;4988263;28;20388;-71
2023/10/03 00:46:35;;;;;;;37.40;21.05;;;;;;;16.88;100.00;100803.13;4995283;28;20036;-72
2023/10/03 00:49:14;;;;;;;38.88;21.50;;;;;;;16.89;100.00;100806.72;4992940;28;20030;-73
2023/10/03 00:51:40;;;;;;;35.58;20.00;;;;;;;16.88;100.00;100799.59;4990474;28;20038;-72
2023/10/03 00:54:06;;;;;;;36.67;20.73;;;;;;;16.85;100.00;100791.78;4990786;28;20038;-72
2023/10/03 00:56:32;;;;;;;35.17;20.38;;;;;;;16.81;100.00;100774.19;4996902;28;20592;-72
2023/10/03 00:58:57;;;;;;;34.17;20.45;;;;;;;16.78;100.00;100764.53;4995098;28;20030;-72
2023/10/03 01:01:27;;;;;;;35.67;20.33;;;;;;;16.73;100.00;100761.34;4992185;28;20026;-72
2023/10/03 01:03:55;;;;;;;34.13;19.30;;;;;;;16.74;100.00;100767.56;4996296;28;20029;-72
2023/10/03 01:06:21;;;;;;;35.22;20.35;;;;;;;16.72;100.00;100759.59;4997741;28;20128;-72
2023/10/03 01:08:48;;;;;;;35.00;19.42;;;;;;;16.68;100.00;100750.06;4983026;28;20703;-72
2023/10/03 01:11:16;;;;;;;36.45;20.88;;;;;;;16.66;100.00;100743.94;4988927;28;20412;-72
2023/10/03 01:13:46;;;;;;;31.05;19.42;;;;;;;16.65;100.00;100736.88;4995229;28;20038;-72
2023/10/03 01:16:12;;;;;;;33.95;20.13;;;;;;;16.66;100.00;100733.19;4991122;28;20041;-72
2023/10/03 01:18:41;;;;;;;36.13;21.08;;;;;;;16.64;100.00;100730.63;4984165;28;20033;-72
2023/10/03 01:21:10;;;;;;;35.03;20.25;;;;;;;16.69;100.00;100719.53;5004043;28;20029;-71
2023/10/03 01:23:37;;;;;;;32.25;19.77;;;;;;;16.75;100.00;100723.59;4995203;28;20540;-71
2023/10/03 01:26:06;;;;;;;32.35;19.92;;;;;;;16.79;100.00;100717.00;4993765;28;20045;-71
2023/10/03 01:28:31;;;;;;;35.10;20.13;;;;;;;16.88;100.00;100709.03;5000239;28;20029;-71
2023/10/03 01:30:57;;;;;;;33.17;19.83;;;;;;;16.99;100.00;100724.34;4992698;28;20038;-71
2023/10/03 01:33:26;;;;;;;35.50;20.27;;;;;;;17.07;100.00;100715.66;4992000;28;20397;-72
2023/10/03 01:35:53;;;;;;;34.10;19.52;;;;;;;17.16;100.00;100705.00;4994026;28;20542;-72
2023/10/03 01:38:18;;;;;;;35.97;20.83;;;;;;;17.26;100.00;100705.13;5000131;28;20026;-71
2023/10/03 01:40:44;;;;;;;34.08;20.13;;;;;;;17.25;100.00;100703.41;5000693;28;20091;-72
2023/10/03 01:43:10;;;;;;;31.75;19.08;;;;;;;17.33;100.00;100698.25;4992229;28;20044;-72
2023/10/03 01:45:35;;;;;;;33.15;19.15;;;;;;;17.35;100.00;100687.41;4984812;28;20026;-72
2023/10/03 01:48:04;;;;;;;32.13;17.92;;;;;;;17.43;100.00;100679.53;4996872;28;20021;-71
2023/10/03 01:50:31;;;;;;;32.33;18.58;;;;;;;17.57;100.00;100686.47;4998950;28;20149;-71
2023/10/03 01:52:57;;;;;;;32.92;18.10;;;;;;;17.71;100.00;100707.72;4995804;28;20496;-71
2023/10/03 01:55:23;;;;;;;32.30;18.23;;;;;;;17.79;100.00;100707.13;4997593;28;20041;-72
2023/10/03 01:57:48;;;;;;;29.55;16.67;;;;;;;17.88;100.00;100691.03;5001293;28;20077;-71
2023/10/03 02:00:21;;;;;;;29.65;17.38;;;;;;;17.92;100.00;100695.19;4994505;28;20045;-72
2023/10/03 02:02:50;;;;;;;29.35;16.23;;;;;;;17.95;100.00;100691.38;4999690;28;20026;-72
2023/10/03 02:05:19;;;;;;;28.20;16.80;;;;;;;18.08;99.60;100688.50;4993603;28;20105;-72
2023/10/03 02:07:47;;;;;;;28.95;16.55;;;;;;;18.15;99.20;100690.56;5000389;28;20188;-72
2023/10/03 02:10:12;;;;;;;29.27;16.75;;;;;;;18.26;98.06;100680.69;4971590;28;20039;-72
2023/10/03 02:12:48;;;;;;;29.13;17.08;;;;;;;18.28;97.92;100676.88;4998605;28;20045;-72
2023/10/03 02:15:14;;;;;;;28.52;16.73;;;;;;;18.43;96.65;100688.16;4993147;28;20298;-72
2023/10/03 02:17:40;;;;;;;25.45;15.38;;;;;;;18.42;96.82;100683.78;4998200;28;20018;-72
2023/10/03 02:20:13;;;;;;;30.60;16.98;;;;;;;18.47;96.18;100683.38;4998174;28;20030;-71
2023/10/03 02:22:38;;;;;;;;;;;;;;;18.44;97.30;100676.44;5003160;28;20026;-72
2023/10/03 02:25:04;;;;;;;28.48;16.05;;;;;;;18.44;95.75;100660.25;4995214;28;20279;-72
2023/10/03 02:27:30;;;;;;;30.95;17.05;;;;;;;18.47;95.89;100654.59;4982809;28;20250;-72
2023/10/03 02:29:58;;;;;;;31.08;16.30;;;;;;;18.52;95.28;100649.66;4995697;28;20100;-71
2023/10/03 02:32:25;;;;;;;28.02;16.75;;;;;;;18.51;95.65;100641.69;5001191;28;20567;-71
2023/10/03 02:34:51;;;;;;;29.42;17.25;;;;;;;18.57;95.24;100662.75;5000474;28;20025;-72
2023/10/03 02:37:16;;;;;;;29.73;16.92;;;;;;;18.54;95.07;100663.84;4998943;28;20060;-72
2023/10/03 02:39:43;;;;;;;29.95;16.48;;;;;;;18.51;95.09;100674.03;4999841;28;20357;-71
2023/10/03 02:42:09;;;;;;;26.85;15.80;;;;;;;18.54;94.65;100649.53;4998633;28;21028;-72
2023/10/03 02:44:36;;;;;;;26.20;15.57;;;;;;;18.46;95.73;100657.41;4999421;28;20379;-71
2023/10/03 02:47:02;;;;;;;30.00;17.15;;;;;;;18.51;95.18;100665.94;4981082;28;20081;-73
2023/10/03 02:49:30;;;;;;;29.35;16.95;;;;;;;18.47;95.57;100667.22;4995332;28;20038;-72
2023/10/03 02:51:55;;;;;;;32.47;16.33;;;;;;;18.48;95.25;100667.09;5002104;28;20120;-72
2023/10/03 02:54:22;;;;;;;27.70;15.77;;;;;;;18.48;95.33;100659.00;5003917;28;20029;-72
2023/10/03 02:56:48;;;;;;;26.90;15.32;;;;;;;18.48;95.50;100677.88;4995394;28;20069;-71
2023/10/03 02:59:13;;;;;;;27.48;15.75;;;;;;;18.47;95.43;100675.28;4982963;28;20065;-72
2023/10/03 03:01:38;;;;;;;28.00;17.00;;;;;;;18.40;95.83;100680.38;5001082;28;20034;-71
2023/10/03 03:04:04;;;;;;;31.42;16.48;;;;;;;18.32;96.31;100678.34;4999770;28;20586;-71
2023/10/03 03:06:31;;;;;;;26.02;15.55;;;;;;;18.30;96.68;100690.22;4998330;28;20503;-71
2023/10/03 03:08:57;;;;;;;28.60;14.75;;;;;;;18.28;96.81;100698.44;4994833;28;20480;-71
2023/10/03 03:11:22;;;;;;;29.42;16.05;;;;;;;18.25;96.93;100689.75;4987743;28;20034;-72
2023/10/03 03:13:49;;;;;;;26.48;14.27;;;;;;;18.29;97.45;100678.59;4998675;28;20033;-72
2023/10/03 03:16:15;;;;;;;25.45;13.90;;;;;;;18.32;97.63;100691.81;4998689;28;20408;-70
2023/10/03 03:18:41;;;;;;;26.25;13.10;;;;;;;18.33;97.97;100689.97;4989317;28;20596;-73
2023/10/03 03:21:10;;;;;;;22.75;13.13;;;;;;;18.38;97.99;100691.28;4998510;28;20022;-72
2023/10/03 03:23:36;;;;;;;22.15;12.90;;;;;;;18.47;97.91;100688.78;5000210;28;20050;-72
2023/10/03 03:26:22;;;;;;;23.92;13.25;;;;;;;18.49;97.31;100681.41;4980885;28;20076;-71
2023/10/03 03:28:49;;;;;;;22.73;12.93;;;;;;;18.51;96.92;100677.59;4998233;28;20026;-70
2023/10/03 03:31:22;;;;;;;20.67;12.80;;;;;;;18.56;96.32;100674.50;4994069;28;20057;-72
2023/10/03 03:33:57;;;;;;;22.20;13.68;;;;;;;18.48;96.80;100682.41;4991911;28;20113;-72
2023/10/03 03:36:29;;;;;;;20.95;12.45;;;;;;;18.47;97.19;100683.38;4991957;28;20030;-71
2023/10/03 03:38:59;;;;;;;24.70;13.10;;;;;;;18.44;97.54;100689.91;5001978;28;20522;-71
2023/10/03 03:41:25;;;;;;;23.27;13.15;;;;;;;18.46;97.84;100673.59;4986487;28;20111;-71
2023/10/03 03:43:52;;;;;;;19.63;11.82;;;;;;;18.48;98.04;100680.56;4995699;28;20085;-72
2023/10/03 03:46:20;;;;;;;20.77;12.05;;;;;;;18.52;97.99;100681.13;4997023;28;20108;-72
2023/10/03 03:48:46;;;;;;;20.73;12.13;;;;;;;18.50;98.35;100686.66;4995403;28;20485;-72
2023/10/03 03:51:14;;;;;;;21.05;12.00;;;;;;;18.41;99.39;100672.16;4994314;28;20030;-71
2023/10/03 03:53:42;;;;;;;20.35;11.50;;;;;;;18.32;99.75;100672.94;4995448;28;20030;-72
2023/10/03 03:56:07;;;;;;;20.90;11.57;;;;;;;18.33;99.27;100671.97;4984358;28;20018;-73
2023/10/03 03:58:57;;;;;;;19.05;11.48;;;;;;;18.32;99.53;100686.41;4997535;28;20545;-72
2023/10/03 04:01:23;;;;;;;28.27;11.85;;;;;;;18.41;99.52;100687.47;4997361;28;20061;-72
2023/10/03 04:03:53;;;;;;;18.27;10.73;;;;;;;18.42;99.55;100700.78;4997784;28;20060;-71
2023/10/03 04:06:19;;;;;;;18.98;10.65;;;;;;;18.43;99.61;100698.94;4971920;28;20057;-72
2023/10/03 04:08:45;;;;;;;20.45;10.93;;;;;;;18.46;99.69;100697.84;4983969;28;20685;-72
2023/10/03 04:11:13;;;;;;;15.65;9.57;;;;;;;18.51;99.39;100698.28;4994024;28;20645;-72
2023/10/03 04:13:49;;;;;;;17.85;10.15;;;;;;;18.48;100.00;100694.03;4995720;28;20048;-72
2023/10/03 04:16:19;;;;;;;17.52;10.30;;;;;;;18.44;100.00;100703.38;4992190;28;20459;-72
2023/10/03 04:18:44;;;;;;;16.85;10.10;;;;;;;18.44;100.00;100700.69;4984773;28;20030;-71
2023/10/03 04:21:13;;;;;;;15.75;9.95;;;;;;;18.46;100.00;100703.25;5003860;28;20111;-70
2023/10/03 04:23:39;;;;;;;15.52;8.85;;;;;;;18.45;100.00;100704.22;5002112;28;20022;-72
2023/10/03 04:26:07;;;;;;;20.48;10.23;;;;;;;18.48;100.00;100709.38;5008199;28;20163;-72
2023/10/03 04:28:33;;;;;;;16.00;10.40;;;;;;;18.41;100.00;100712.56;5005432;28;20044;-72
2023/10/03 04:30:58;;;;;;;16.88;9.40;;;;;;;18.46;100.00;100722.94;4995411;28;20386;-71
2023/10/03 04:33:24;;;;;;;16.13;9.20;;;;;;;18.51;100.00;100727.94;4994735;28;20128;-72
2023/10/03 04:35:51;;;;;;;13.05;8.85;;;;;;;18.56;100.00;100728.41;5003218;28;20057;-71
2023/10/03 04:38:17;;;;;;;14.05;8.80;;;;;;;18.63;100.00;100724.19;5005357;28;20038;-71
2023/10/03 04:40:43;;;;;;;12.93;8.50;;;;;;;18.69;100.00;100725.53;4999926;28;20084;-72
2023/10/03 04:43:12;;;;;;;13.30;8.48;;;;;;;18.67;100.00;100729.19;5005965;28;20040;-72
2023/10/03 04:45:39;;;;;;;13.85;9.13;;;;;;;18.69;100.00;100725.53;5007063;28;20026;-72
2023/10/03 04:48:04;;;;;;;12.45;8.15;;;;;;;18.69;100.00;100726.38;5015199;28;20288;-75
2023/10/03 04:50:30;;;;;;;13.40;7.43;;;;;;;18.68;100.00;100724.63;5001398;28;20022;-71
2023/10/03 04:52:55;;;;;;;10.85;7.30;;;;;;;18.66;100.00;100738.25;4996869;28;20117;-71
2023/10/03 04:55:23;;;;;;;13.25;8.20;;;;;;;18.66;99.65;100751.75;4999850;28;20022;-72
2023/10/03 04:57:50;;;;;;;13.30;7.35;;;;;;;18.62;99.91;100753.00;5005939;28;20295;-72
2023/10/03 05:00:18;;;;;;;13.77;7.75;;;;;;;18.57;100.00;100755.22;4999292;28;20170;-72
2023/10/03 05:02:49;;;;;;;11.13;8.13;;;;;;;18.57;99.79;100755.22;4983319;28;20026;-72
2023/10/03 05:05:17;;;;;;;16.00;8.50;;;;;;;18.58;99.33;100748.84;4980415;28;20026;-72
2023/10/03 05:07:43;;;;;;;12.18;8.05;;;;;;;18.55;99.65;100759.88;4998143;28;20017;-71
2023/10/03 05:10:08;;;;;;;10.77;7.60;;;;;;;18.53;99.59;100753.78;4994663;28;20542;-72
2023/10/03 05:12:34;;;;;;;11.43;7.18;;;;;;;18.53;99.38;100769.09;5005328;28;20038;-72
2023/10/03 05:14:59;;;;;;;10.65;7.10;;;;;;;18.50;99.34;100799.00;4998351;28;20389;-72
2023/10/03 05:17:28;;;;;;;10.40;6.90;;;;;;;18.51;98.07;100800.72;4998325;28;20018;-71
2023/10/03 05:19:58;;;;;;;12.18;6.80;;;;;;;18.42;97.97;100805.03;4995422;28;20045;-72
2023/10/03 05:22:24;;;;;;;12.15;7.05;;;;;;;18.41;96.87;100836.53;5001688;28;20038;-71
2023/10/03 05:24:49;;;;;;;9.75;6.70;;;;;;;18.36;96.52;100814.50;4994352;28;20554;-71
2023/10/03 05:27:16;;;;;;;9.98;5.75;;;;;;;18.29;96.82;100805.22;4991108;28;20048;-71
2023/10/03 05:29:43;;;;;;;11.40;6.20;;;;;;;18.27;96.08;100791.03;4997085;28;20245;-71
2023/10/03 05:32:08;;;;;;;10.68;6.15;;;;;;;18.19;97.06;100796.22;4992614;28;20278;-72
2023/10/03 05:34:34;;;;;;;10.98;6.70;;;;;;;18.18;96.72;100797.16;4995055;28;20377;-71
2023/10/03 05:37:00;;;;;;;11.23;6.50;;;;;;;18.13;97.01;100802.94;4986703;28;20028;-72
2023/10/03 05:39:26;;;;;;;8.55;5.93;;;;;;;18.07;97.85;100794.53;4984693;28;20029;-72
2023/10/03 05:41:56;;;;;;;10.38;6.72;;;;;;;18.02;97.98;100791.38;5000644;28;20438;-72
2023/10/03 05:44:22;;;;;;;9.35;6.22;;;;;;;17.99;97.80;100802.41;5003260;28;20265;-72
2023/10/03 05:46:55;;;;;;;8.82;6.20;;;;;;;17.97;98.40;100796.25;5000129;28;20057;-71
2023/10/03 05:49:24;;;;;;;9.65;6.35;;;;;;;17.95;98.47;100793.72;4997629;28;20034;-72
2023/10/03 05:51:55;;;;;;;7.82;6.10;;;;;;;17.89;98.89;100795.09;4999311;28;20475;-73
2023/10/03 05:54:22;;;;;;;9.63;6.20;;;;;;;17.84;99.60;100791.03;4997148;28;20121;-72
2023/10/03 05:56:48;;;;;;;12.55;6.30;;;;;;;17.75;100.00;100786.41;4996918;28;20394;-73
2023/10/03 05:59:14;;;;;;;9.68;6.38;;;;;;;17.67;100.00;100789.69;4995064;28;20037;-71
2023/10/03 06:01:40;;;;;;;12.57;6.38;;;;;;;17.60;100.00;100794.75;5002541;28;20022;-71
2023/10/03 06:04:05;;;;;;;10.85;6.85;;;;;;;17.58;100.00;100790.44;5001408;28;20392;-72
2023/10/03 06:06:31;;;;;;;10.35;6.88;;;;;;;17.59;100.00;100803.78;4996695;28;20092;-72
2023/10/03 06:08:56;;;;;;;10.48;6.57;;;;;;;17.60;100.00;100802.81;4997995;28;20037;-71
2023/10/03 06:11:22;;;;;;;12.10;7.20;;;;;;;17.65;100.00;100811.38;4999029;28;20030;-72
2023/10/03 06:13:47;;;;;;;16.95;7.22;;;;;;;17.67;100.00;100805.84;4997592;28;20100;-71
2023/10/03 06:16:14;;;;;;;10.07;6.78;;;;;;;17.68;100.00;100803.06;4996053;28;20550;-70
2023/10/03 06:18:40;;;;;;;10.73;6.72;;;;;;;17.73;100.00;100810.75;4990063;28;20034;-70
2023/10/03 06:21:07;;;;;;;9.57;6.53;;;;;;;17.71;100.00;100820.75;4978995;28;20032;-71
2023/10/03 06:23:34;;;;;;;10.77;7.25;;;;;;;17.79;100.00;100826.41;4998867;28;20028;-72
2023/10/03 06:25:59;;;;;;;8.52;6.63;;;;;;;17.81;100.00;100834.38;4991639;28;20064;-70
2023/10/03 06:28:25;;;;;;;14.00;7.30;;;;;;;17.80;100.00;100833.50;4993500;28;20022;-72
2023/10/03 06:30:52;;;;;;;11.68;6.97;;;;;;;17.76;100.00;100840.13;4996460;28;20050;-72
2023/10/03 06:33:17;;;;;;;10.48;6.63;;;;;;;17.78;100.00;100835.47;4993396;28;20508;-72
2023/10/03 06:35:43;;;;;;;12.13;6.75;;;;;;;17.81;100.00;100837.09;4995734;28;20440;-72
2023/10/03 06:38:08;;;;;;;11.15;6.90;;;;;;;17.82;100.00;100838.78;4994643;28;20031;-73
2023/10/03 06:40:33;;;;;;;11.55;6.93;;;;;;;17.80;100.00;100838.88;4994255;28;20114;-73
2023/10/03 06:42:59;;;;;;;10.18;6.55;;;;;;;17.80;100.00;100841.59;4998987;28;20036;-73
2023/10/03 06:45:25;;;;;;;10.60;6.85;;;;;;;17.78;100.00;100854.31;4999022;28;20244;-72
2023/10/03 06:47:51;;;;;;;12.88;6.43;;;;;;;17.79;100.00;100852.50;4999395;28;20108;-72
2023/10/03 06:50:17;;;;;;;11.95;6.35;;;;;;;17.80;100.00;100865.81;4994508;28;20066;-72
2023/10/03 06:52:43;;;;;;;10.75;6.43;;;;;;;17.80;100.00;100864.97;4988537;28;20026;-70
2023/10/03 06:55:11;;;;;;;9.73;6.82;;;;;;;17.78;100.00;100870.47;4990914;28;20038;-71
2023/10/03 06:57:38;;;;;;;10.10;6.60;;;;;;;17.76;100.00;100868.88;4988332;28;20026;-70
2023/10/03 07:00:04;;;;;;;11.32;6.53;;;;;;;17.75;100.00;100868.03;4992711;28;20049;-71
2023/10/03 07:02:29;;;;;;;9.90;6.13;;;;;;;17.78;100.00;100881.25;5001058;28;20085;-70
2023/10/03 07:04:55;;;;;;;9.75;6.15;;;;;;;17.76;100.00;100877.81;4997375;28;20488;-72
2023/10/03 07:07:21;;;;;;;12.07;6.80;;;;;;;17.80;100.00;100887.34;4996146;28;20034;-71
2023/10/03 07:09:46;;;;;;;10.52;7.15;;;;;;;17.77;100.00;100873.31;4997252;28;20072;-70
2023/10/03 07:12:11;;;;;;;9.30;6.40;;;;;;;17.79;100.00;100874.88;4991695;28;20508;-71
2023/10/03 07:14:37;;;;;;;10.55;6.90;;;;;;;17.80;100.00;100871.19;5003254;28;20022;-71
2023/10/03 07:17:03;;;;;;;16.08;7.18;;;;;;;17.87;100.00;100872.41;4998676;28;20442;-72
2023/10/03 07:19:30;;;;;;;10.02;6.70;;;;;;;17.88;100.00;100876.81;4991610;28;20494;-71
2023/10/03 07:21:57;;;;;;;11.32;6.50;;;;;;;17.95;100.00;100876.34;4996402;28;20029;-70
2023/10/03 07:24:24;;;;;;;10.50;6.57;;;;;;;18.00;100.00;100869.59;4991443;28;20029;-70
2023/10/03 07:26:51;;;;;;;11.05;7.13;;;;;;;18.09;100.00;100878.75;4987313;28;20504;-70
2023/10/03 07:29:21;;;;;;;9.38;6.82;;;;;;;18.10;100.00;100865.19;4994489;28;20051;-72
2023/10/03 07:31:47;;;;;;;9.88;6.82;;;;;;;18.11;100.00;100884.88;4998515;28;20042;-71
2023/10/03 07:34:17;;;;;;;11.00;7.65;;;;;;;18.08;100.00;100883.28;4997506;28;20456;-72
2023/10/03 07:36:43;;;;;;;9.48;6.30;;;;;;;18.04;100.00;100891.75;5000727;28;20040;-71
2023/10/03 07:39:08;;;;;;;9.77;7.13;;;;;;;18.04;100.00;100902.50;4997679;28;20396;-71
2023/10/03 07:41:34;;;;;;;9.73;7.07;;;;;;;17.98;100.00;100890.41;5001766;28;20032;-71
2023/10/03 07:44:00;;;;;;;8.85;6.95;;;;;;;18.01;100.00;100909.00;4996504;28;20018;-71
2023/10/03 07:46:28;;;;;;;14.02;7.05;;;;;;;17.97;100.00;100912.06;4990957;28;20025;-71
2023/10/03 07:48:53;;;;;;;12.30;6.82;;;;;;;17.98;100.00;100922.72;4996896;28;20032;-71
2023/10/03 07:51:25;;;;;;;10.05;6.45;;;;;;;17.91;100.00;100937.66;4995219;28;20031;-71
2023/10/03 07:53:52;;;;;;;9.35;6.40;;;;;;;17.89;100.00;100940.50;4987519;28;20065;-71
2023/10/03 07:56:25;;;;;;;8.90;6.70;;;;;;;17.88;100.00;100951.34;4992367;28;20085;-71
2023/10/03 07:58:53;;;;;;;12.85;7.00;;;;;;;17.81;100.00;100948.31;4991002;28;20116;-70
2023/10/03 08:01:26;;;;;;;10.23;7.13;;;;;;;17.85;100.00;100928.25;4998237;28;20503;-70
2023/10/03 08:03:58;;;;;;;11.77;7.20;;;;;;;17.91;100.00;100945.75;4977811;28;20029;-71
2023/10/03 08:06:33;;;;;;;11.52;7.30;;;;;;;17.91;100.00;100949.28;4997414;28;20033;-70
2023/10/03 08:08:59;;;;;;;11.93;7.30;;;;;;;17.91;100.00;100951.13;4995427;28;20029;-71
2023/10/03 08:11:30;;;;;;;11.68;6.93;;;;;;;17.92;100.00;100964.44;4995055;28;20135;-72
2023/10/03 08:13:56;;;;;;;9.25;6.95;;;;;;;18.02;100.00;100977.22;4997657;28;20481;-72
2023/10/03 08:16:22;;;;;;;9.18;7.00;;;;;;;18.08;100.00;100960.53;4998213;28;20087;-71
2023/10/03 08:19:01;;;;;;;8.77;6.53;;;;;;;18.20;100.00;100953.31;4996800;28;20029;-71
2023/10/03 08:21:28;;;;;;;9.38;6.70;;;;;;;18.36;100.00;100967.25;4999807;28;20601;-70
2023/10/03 08:23:58;;;;;;;8.65;6.57;;;;;;;18.42;100.00;100975.66;4992700;28;20022;-70
2023/10/03 08:26:25;;;;;;;8.32;6.53;;;;;;;18.38;100.00;100992.22;4999038;28;20035;-72
2023/10/03 08:29:04;;;;;;;9.52;6.32;;;;;;;18.25;100.00;101000.44;4987703;28;20030;-71
2023/10/03 08:31:29;;;;;;;11.43;6.75;;;;;;;18.09;100.00;101002.66;4997677;28;20120;-70
2023/10/03 08:33:55;;;;;;;10.27;6.22;;;;;;;17.94;100.00;101003.88;4988317;28;20125;-71
2023/10/03 08:36:32;;;;;;;9.60;5.45;;;;;;;17.84;100.00;101023.44;4990059;28;20030;-71
2023/10/03 08:39:12;;;;;;;10.38;5.03;;;;;;;17.59;100.00;101011.00;4988082;28;20045;-72
2023/10/03 08:41:46;;;;;;;6.47;5.00;;;;;;;17.38;100.00;101026.13;4986516;28;20034;-72
2023/10/03 08:44:12;;;;;;;5.70;4.03;;;;;;;17.34;100.00;101022.81;4997754;28;20174;-70
2023/10/03 08:46:50;;;;;;;7.80;4.18;;;;;;;17.32;100.00;101027.47;4991963;28;20061;-71
2023/10/03 08:49:19;;;;;;;6.15;3.95;;;;;;;17.40;100.00;101029.56;4975901;28;20049;-71
2023/10/03 08:51:48;;;;;;;6.65;3.85;;;;;;;17.54;100.00;101039.25;4997777;28;20396;-71
2023/10/03 08:54:14;;;;;;;5.80;3.28;;;;;;;17.65;100.00;101039.31;4995539;28;20515;-71
2023/10/03 08:56:41;;;;;;;6.07;3.13;;;;;;;17.75;100.00;101040.31;4991331;28;20033;-71
2023/10/03 08:59:09;;;;;;;7.05;3.00;;;;;;;17.85;100.00;101051.25;4991599;28;20062;-72
2023/10/03 09:01:43;;;;;;;5.97;3.08;;;;;;;17.90;100.00;101051.75;4992215;28;20041;-71
2023/10/03 09:04:16;;;;;;;6.40;2.75;;;;;;;17.95;100.00;101054.91;4997337;28;20091;-71
2023/10/03 09:06:44;;;;;;;6.90;2.47;;;;;;;18.06;97.42;101057.63;4991232;28;20027;-71
2023/10/03 09:09:13;;;;;;;4.40;2.22;;;;;;;18.09;96.77;101073.53;4994387;28;20034;-72
2023/10/03 09:11:41;;;;;;;5.25;2.30;;;;;;;18.12;96.76;101078.69;4997277;28;20026;-71
2023/10/03 09:14:08;;;;;;;7.35;2.15;;;;;;;18.05;96.15;101088.22;5001845;28;20464;-72
2023/10/03 09:16:38;;;;;;;4.13;2.08;;;;;;;17.95;96.76;101094.47;4981112;28;20392;-71
2023/10/03 09:19:04;;;;;;;4.97;1.67;;;;;;;17.68;97.78;101119.78;5000447;28;20569;-71
2023/10/03 09:21:30;;;;;;;1.52;0.90;;;;;;;17.29;98.33;101132.59;4997292;28;20026;-71
2023/10/03 09:24:09;;;;;;;2.08;0.70;;;;;;;17.04;98.43;101136.25;4987886;28;20389;-72
2023/10/03 09:26:52;;;;;;;1.85;0.90;;;;;;;17.10;98.79;101146.56;5001467;28;20030;-73
2023/10/03 09:29:31;;;;;;;1.30;0.70;;;;;;;17.15;96.73;101159.69;4996206;28;20076;-72
2023/10/03 09:31:58;;;;;;;2.55;0.90;;;;;;;17.21;96.44;101159.22;4990779;28;20085;-72
2023/10/03 09:34:30;;;;;;;3.95;0.93;;;;;;;17.31;96.75;101162.09;4996605;28;20030;-72
2023/10/03 09:37:08;;;;;;;3.50;1.23;;;;;;;17.36;95.40;101174.22;5001234;28;20187;-71
2023/10/03 09:39:47;;;;;;;2.50;0.90;;;;;;;17.42;94.93;101173.75;5002034;28;20026;-71
2023/10/03 09:42:17;;;;;;;3.72;1.27;;;;;;;17.47;95.60;101161.78;5012094;28;20021;-71
2023/10/03 09:44:48;;;;;;;2.13;0.90;;;;;;;17.56;94.23;101164.66;5013958;28;20022;-71
2023/10/03 09:47:17;;;;;;;2.78;1.50;;;;;;;17.62;93.41;101166.03;5016622;28;20512;-70
2023/10/03 09:49:43;;;;;;;2.40;1.13;;;;;;;17.67;93.99;101169.22;5011448;28;20253;-72
2023/10/03 09:52:17;;;;;;;2.60;1.35;;;;;;;17.71;93.93;101168.03;5009671;28;20022;-71
2023/10/03 09:54:44;;;;;;;2.78;1.45;;;;;;;17.73;95.08;101176.00;4992416;28;20054;-71
2023/10/03 09:57:16;;;;;;;4.70;1.48;;;;;;;17.67;95.67;101167.41;5005473;28;20496;-72
2023/10/03 09:59:49;;;;;;;3.13;1.08;;;;;;;17.77;95.56;101185.59;5010000;28;20121;-71
2023/10/03 10:02:16;;;;;;;2.05;1.10;;;;;;;17.73;95.59;101193.00;5000705;28;20511;-70
2023/10/03 10:04:48;;;;;;;3.47;1.08;;;;;;;17.61;95.25;101200.16;5001488;28;20022;-72
2023/10/03 10:07:29;;;;;;;3.28;1.13;;;;;;;17.52;96.10;101191.94;4996513;28;20311;-72
2023/10/03 10:10:07;;;;;;;4.15;1.38;;;;;;;17.34;96.94;101205.75;4996066;28;20026;-72
2023/10/03 10:12:37;;;;;;;2.60;1.40;;;;;;;17.23;97.57;101186.88;4980679;28;20034;-72
2023/10/03 10:17:39;;;;;;;5.22;1.60;;;;;;;17.21;98.42;101218.38;4992516;28;20183;-71
2023/10/03 10:20:12;;;;;;;4.50;1.65;;;;;;;17.19;98.24;101239.16;4994653;28;20065;-71
2023/10/03 10:22:56;;;;;;;4.90;2.38;;;;;;;17.28;98.74;101234.94;4998192;28;20029;-72
2023/10/03 10:25:25;;;;;;;6.13;3.33;;;;;;;17.16;98.56;101239.38;5000005;28;20029;-72
2023/10/03 10:28:23;;;;;;;7.00;1.55;;;;;;;17.35;98.79;101241.63;4992515;28;20034;-70
2023/10/03 10:31:11;;;;;;;2.05;1.00;;;;;;;17.40;97.29;101252.91;4989961;28;20049;-71
2023/10/03 10:33:37;;;;;;;3.13;1.40;;;;;;;17.34;97.24;101267.63;4998662;28;20048;-71
2023/10/03 10:36:04;;;;;;;3.65;1.40;;;;;;;17.08;99.34;101263.28;4991817;28;20030;-72
2023/10/03 10:38:32;;;;;;;3.78;1.38;;;;;;;16.87;100.00;101274.59;4997564;28;20034;-71
2023/10/03 10:44:13;;;;;;;4.68;1.50;;;;;;;17.43;100.00;101261.59;4998117;28;20098;-72
2023/10/03 10:46:47;;;;;;;3.17;1.10;;;;;;;18.14;95.53;101270.72;4981975;28;20037;-72
2023/10/03 10:49:41;;;;;;;3.72;1.27;;;;;;;18.89;90.35;101275.72;4996677;28;20037;-72
2023/10/03 10:52:09;;;;;;;3.33;0.90;;;;;;;18.86;86.34;101272.38;4973809;28;20061;-72
2023/10/03 10:54:39;;;;;;;4.00;1.73;;;;;;;19.06;85.84;101274.38;4993580;28;20179;-72
2023/10/03 10:57:06;;;;;;;2.22;0.88;;;;;;;18.83;84.41;101280.72;4997197;28;20026;-73
2023/10/03 10:59:36;;;;;;;2.13;0.90;;;;;;;18.38;87.32;101284.13;5002539;28;20402;-72
2023/10/03 11:02:04;;;;;;;2.13;0.75;;;;;;;18.04;89.57;101295.75;4984266;28;20042;-72
2023/10/03 11:04:33;;;;;;;2.13;0.77;;;;;;;17.76;90.71;101303.19;4992763;28;20036;-72
2023/10/03 11:06:58;;;;;;;2.25;0.70;;;;;;;17.37;93.38;101312.31;4979409;28;20518;-72
2023/10/03 11:09:24;;;;;;;2.28;0.70;;;;;;;16.86;96.41;101315.88;4996160;28;20061;-71
2023/10/03 11:11:52;;;;;;;1.77;0.50;;;;;;;16.53;100.00;101323.56;4999748;28;20033;-71
2023/10/03 11:14:29;;;;;;;1.48;0.60;;;;;;;16.46;100.00;101322.25;5000321;28;20018;-71
2023/10/03 11:16:59;;;;;;;2.72;0.68;;;;;;;16.79;100.00;101322.66;4988523;28;20462;-72
2023/10/03 11:19:32;;;;;;;1.52;0.90;;;;;;;17.03;100.00;101324.59;4998010;28;20094;-72
2023/10/03 11:21:58;;;;;;;1.80;1.10;;;;;;;17.00;100.00;101314.06;4998398;28;20080;-70